Airfield :
LOGIN :

Register | Disclaimer

   EN    FR    IT 

 










Legend :    VFR   Marginal VFR   IFR   Intensive IFR   Very Intensive IFR
Visi :
Ceiling :
>= 8 km
>= 3000ft
5 to 8 km
1000 to 3000 ft
1500m to 5 km
500 to 1000 ft
800 to 1500m
200 to 500 ft
< 800m
< 200 ft
Symbols :   Thunderstorms  Fog  Heavy snow  Heavy precipitations  Wind > 20 kt
SIGMETs :     Misc.  Thunderstorms  Icing  Turbulence  Mountain Waves  Volcanic Ashes







- Airport Elevation : 20 ft


EBFN - Koksijde

CURRENT METAR :
  • 102325Z AUTO 32004KT 9999 FEW030/// 06/01 Q1027 BLU

EXPIRED METARs :
  • 102255Z AUTO 34005KT 9999 SCT030/// 06/00 Q1027 BLU
  • 102225Z AUTO 34004KT 9999 SCT031/// 07/01 Q1027 BLU
  • 102155Z AUTO 34005KT 9999 FEW031/// 07/01 Q1027 BLU
  • 102125Z AUTO 34006KT 9999 FEW034/// 07/00 Q1027 BLU
  • 102055Z AUTO 35007KT 9999 NCD 07/00 Q1027 BLU

TAF TAF EBFN
Valid from the 10 at 19:00 until the 11 at 07:00 UTC


101541Z 1019/1107 32012G22KT 9999 FEW018 SCT025
TEMPO 1019/1100 SCT018
BECMG 1100/1102 33007KT
No reported NOTAMs for that airfield.



MET'MAP, your aeronautical weather chart ! - Copyright ORBIFLY December 2007 - Disclaimer

ORBIFLY MET'MAP TEAM :

Programming & Development : Alexandra Zaïnal
Concept & Development : Baudouin d'Aumeries
Co-Development & Prog : Marc-Olivier Méhu
Technical & hardware support : Manuel Goepfert

Contact : metmap@orbifly.com




SOURCES & CREDITS :

   NOAA